Time;durP1;ratioP1;P1;durP2;ratioP2;P2;SDS_P1;SDS_P2;PMS_P1;PMS_P2;Temp;Humidity;BMP_temperature;BMP_pressure;BME280_temperature;BME280_humidity;BME280_pressure;Samples;Min_cycle;Max_cycle;Signal;HPM_P1;HPM_P2
2022/03/16 00:02:24;;;;;;;;;18.75;18.00;;;;;12.24;73.55;101444.09;5003256;28;45434;-62
2022/03/16 00:04:51;;;;;;;;;20.00;16.50;;;;;12.28;73.85;101445.66;5001390;28;45574;-63
2022/03/16 00:07:17;;;;;;;;;18.50;18.00;;;;;12.19;73.67;101429.25;5001394;28;45473;-64
2022/03/16 00:09:44;;;;;;;;;22.33;22.33;;;;;12.27;73.70;101443.06;5002807;28;45381;-64
2022/03/16 00:12:10;;;;;;;;;18.33;16.33;;;;;12.16;73.72;101422.25;5009629;28;45544;-64
2022/03/16 00:14:36;;;;;;;;;27.00;24.00;;;;;12.27;73.33;101449.28;5003058;28;45368;-63
2022/03/16 00:17:03;;;;;;;;;25.50;25.25;;;;;12.23;73.89;101433.47;5010551;28;45619;-63
2022/03/16 00:19:28;;;;;;;;;21.67;16.33;;;;;12.27;73.45;101446.59;5011210;28;46578;-65
2022/03/16 00:21:54;;;;;;;;;16.33;14.67;;;;;12.18;73.40;101423.06;5011022;28;45348;-63
2022/03/16 00:24:19;;;;;;;;;24.00;20.00;;;;;12.25;73.09;101440.50;5006620;28;45266;-63
2022/03/16 00:26:44;;;;;;;;;22.75;17.75;;;;;12.30;73.13;101443.78;5001041;28;45381;-64
2022/03/16 00:29:10;;;;;;;;;25.50;19.25;;;;;12.20;73.54;101428.31;5001121;28;45784;-65
2022/03/16 00:31:35;;;;;;;;;17.50;17.50;;;;;12.13;73.19;101422.44;5005111;28;45415;-64
2022/03/16 00:34:01;;;;;;;;;20.50;16.50;;;;;12.30;73.56;101448.25;5014672;28;45527;-63
2022/03/16 00:36:27;;;;;;;;;21.75;19.00;;;;;12.26;73.23;101450.22;5005792;28;45377;-63
2022/03/16 00:38:53;;;;;;;;;25.75;18.50;;;;;12.30;73.33;101443.78;5004734;28;46186;-64
2022/03/16 00:41:19;;;;;;;;;21.33;17.00;;;;;12.21;73.17;101425.56;5013230;28;45314;-63
2022/03/16 00:43:45;;;;;;;;;24.67;19.00;;;;;12.25;73.38;101432.50;5010725;28;45326;-63
2022/03/16 00:46:10;;;;;;;;;19.75;18.00;;;;;12.06;73.37;101407.66;5016270;28;45369;-65
2022/03/16 00:48:36;;;;;;;;;17.25;17.00;;;;;12.18;73.17;101417.72;5015396;28;45487;-66
2022/03/16 00:51:01;;;;;;;;;18.33;14.33;;;;;12.29;72.65;101430.53;5007788;28;45250;-64
2022/03/16 00:53:27;;;;;;;;;19.00;15.75;;;;;12.28;72.94;101428.78;5003685;28;45450;-64
2022/03/16 00:55:52;;;;;;;;;15.00;10.25;;;;;12.33;72.91;101432.94;4985777;28;45562;-64
2022/03/16 00:58:18;;;;;;;;;18.50;17.00;;;;;12.28;72.52;101410.13;5001894;28;45837;-63
2022/03/16 01:00:43;;;;;;;;;16.25;16.25;;;;;12.35;72.25;101420.41;5003470;28;45425;-63
2022/03/16 01:03:08;;;;;;;;;22.25;18.00;;;;;12.37;72.81;101412.34;4987639;28;45382;-63
2022/03/16 01:05:34;;;;;;;;;16.00;14.50;;;;;12.34;72.73;101423.13;5009532;28;44897;-63
2022/03/16 01:07:59;;;;;;;;;17.75;14.75;;;;;12.31;72.77;101408.16;5010006;28;45543;-63
2022/03/16 01:10:25;;;;;;;;;24.00;20.50;;;;;12.37;72.44;101415.00;5017679;28;44847;-65
2022/03/16 01:12:50;;;;;;;;;18.25;14.25;;;;;12.34;72.87;101410.66;5017942;28;44785;-64
2022/03/16 01:15:15;;;;;;;;;16.50;16.50;;;;;12.30;72.62;101403.78;5028438;28;45401;-64
2022/03/16 01:17:41;;;;;;;;;17.25;17.25;;;;;12.32;72.76;101407.22;4992856;28;46623;-64
2022/03/16 01:20:07;;;;;;;;;17.25;14.00;;;;;12.33;72.42;101403.59;5011129;28;45499;-64
2022/03/16 01:22:33;;;;;;;;;15.33;15.00;;;;;12.33;72.29;101406.28;4994722;28;44755;-65
2022/03/16 01:24:58;;;;;;;;;18.75;14.50;;;;;12.33;72.78;101405.41;5006735;28;45344;-65
2022/03/16 01:27:24;;;;;;;;;14.33;14.00;;;;;12.27;72.09;101387.94;4988317;28;46022;-62
2022/03/16 01:29:49;;;;;;;;;17.25;14.00;;;;;12.20;71.71;101375.84;5009179;28;45302;-63
2022/03/16 01:32:14;;;;;;;;;16.25;15.00;;;;;12.26;72.36;101388.88;5011594;28;45132;-64
2022/03/16 01:34:40;;;;;;;;;19.33;15.33;;;;;12.25;72.44;101380.97;5012296;28;45632;-62
2022/03/16 01:37:05;;;;;;;;;17.75;14.50;;;;;12.20;72.49;101385.63;5013450;28;45333;-63
2022/03/16 01:39:32;;;;;;;;;18.00;15.00;;;;;12.21;72.40;101377.56;5031287;28;45373;-62
2022/03/16 01:41:57;;;;;;;;;18.50;18.50;;;;;12.19;71.85;101378.56;5008238;28;45424;-64
2022/03/16 01:44:43;;;;;;;;;14.33;9.33;;;;;12.20;72.20;101378.50;4987022;28;45413;-63
2022/03/16 01:47:08;;;;;;;;;17.67;17.67;;;;;12.16;71.90;101376.94;5016076;28;46265;-64
2022/03/16 01:49:34;;;;;;;;;15.00;13.00;;;;;12.11;72.03;101373.66;5018223;28;45373;-65
2022/03/16 01:51:59;;;;;;;;;17.00;14.00;;;;;12.11;72.29;101384.31;5018792;28;44791;-64
2022/03/16 01:54:25;;;;;;;;;16.00;16.00;;;;;12.07;73.15;101388.06;5007701;28;45589;-63
2022/03/16 01:56:51;;;;;;;;;19.25;14.75;;;;;12.01;72.50;101364.38;5017402;28;45048;-63
2022/03/16 01:59:16;;;;;;;;;16.00;13.33;;;;;12.08;72.31;101381.78;5015016;28;45405;-63
2022/03/16 02:01:42;;;;;;;;;19.00;16.50;;;;;12.06;72.20;101378.31;5015147;28;44785;-62
2022/03/16 02:04:07;;;;;;;;;12.33;12.33;;;;;12.05;72.65;101385.47;5007755;28;44869;-64
2022/03/16 02:06:32;;;;;;;;;18.67;16.67;;;;;12.07;72.08;101388.91;5004605;28;46620;-65
2022/03/16 02:08:58;;;;;;;;;18.00;14.00;;;;;12.05;72.35;101382.78;4999599;28;45401;-64
2022/03/16 02:11:23;;;;;;;;;15.75;14.00;;;;;11.97;72.17;101374.31;5004756;28;45466;-63
2022/03/16 02:13:49;;;;;;;;;17.00;14.50;;;;;11.99;72.36;101379.59;4989012;28;45609;-63
2022/03/16 02:16:14;;;;;;;;;13.00;8.75;;;;;12.00;72.36;101382.16;4999615;28;45425;-64
2022/03/16 02:18:39;;;;;;;;;14.00;14.00;;;;;11.91;72.52;101369.28;4984474;28;45273;-63
2022/03/16 02:21:07;;;;;;;;;19.00;17.25;;;;;12.01;72.16;101380.38;5004299;28;45502;-63
2022/03/16 02:23:32;;;;;;;;;21.00;17.00;;;;;11.96;72.61;101371.72;5001945;28;45505;-63
2022/03/16 02:25:58;;;;;;;;;18.75;15.75;;;;;11.94;72.77;101382.47;5001454;28;45480;-62
2022/03/16 02:28:24;;;;;;;;;15.50;15.50;;;;;11.93;72.84;101380.72;5012491;28;45325;-62
2022/03/16 02:30:50;;;;;;;;;15.67;15.67;;;;;11.88;72.51;101371.25;5017433;28;45408;-62
2022/03/16 02:33:16;;;;;;;;;17.00;13.00;;;;;11.90;72.61;101374.69;5005054;28;45658;-64
2022/03/16 02:35:41;;;;;;;;;18.25;15.50;;;;;11.87;72.98;101361.53;4997961;28;46185;-64
2022/03/16 02:38:07;;;;;;;;;16.25;14.25;;;;;11.87;73.00;101365.06;5000624;28;45526;-65
2022/03/16 02:40:33;;;;;;;;;18.25;18.25;;;;;11.80;72.95;101347.63;5003990;28;45258;-63
2022/03/16 02:42:59;;;;;;;;;19.75;14.25;;;;;11.84;72.94;101356.31;5003113;28;45735;-62
2022/03/16 02:45:24;;;;;;;;;20.50;18.75;;;;;11.81;73.29;101344.88;5009104;28;46811;-63
2022/03/16 02:47:50;;;;;;;;;19.25;17.50;;;;;11.87;73.18;101358.88;5011178;28;44685;-62
2022/03/16 02:50:17;;;;;;;;;19.50;18.50;;;;;11.82;73.51;101359.94;5011008;28;45451;-63
2022/03/16 02:52:44;;;;;;;;;19.75;17.00;;;;;11.74;73.66;101346.09;4993540;28;44937;-63
2022/03/16 02:55:10;;;;;;;;;14.00;13.00;;;;;11.74;73.13;101350.56;4991443;28;45437;-63
2022/03/16 02:57:36;;;;;;;;;20.50;20.50;;;;;11.75;73.44;101350.50;4991605;28;45990;-63
2022/03/16 03:00:04;;;;;;;;;21.75;21.75;;;;;11.77;73.58;101356.59;5006327;28;45385;-64
2022/03/16 03:02:30;;;;;;;;;23.50;16.75;;;;;11.77;73.31;101353.09;5004145;28;45279;-63
2022/03/16 03:04:55;;;;;;;;;24.75;18.00;;;;;11.68;73.16;101337.53;4999410;28;45641;-63
2022/03/16 03:07:20;;;;;;;;;23.50;20.00;;;;;11.73;73.59;101348.84;5001210;28;45339;-63
2022/03/16 03:09:46;;;;;;;;;22.00;17.75;;;;;11.73;73.76;101360.38;4996900;28;45533;-64
2022/03/16 03:12:12;;;;;;;;;15.75;15.00;;;;;11.57;73.59;101323.88;4999944;28;45651;-63
2022/03/16 03:14:38;;;;;;;;;17.75;17.75;;;;;11.69;73.55;101347.25;4999101;28;45425;-63
2022/03/16 03:17:03;;;;;;;;;22.75;15.25;;;;;11.69;73.66;101350.78;4982795;28;45423;-62
2022/03/16 03:19:29;;;;;;;;;24.25;20.25;;;;;11.73;73.32;101351.50;5008102;28;45464;-65
2022/03/16 03:21:55;;;;;;;;;25.25;19.50;;;;;11.79;73.39;101367.22;5002833;28;45565;-64
2022/03/16 03:24:21;;;;;;;;;23.67;20.33;;;;;11.73;73.44;101340.84;5004588;28;45516;-63
2022/03/16 03:26:46;;;;;;;;;24.25;22.25;;;;;11.87;73.17;101364.19;5003412;28;45468;-64
2022/03/16 03:29:13;;;;;;;;;24.25;19.75;;;;;11.78;73.17;101350.34;5000385;28;45456;-64
2022/03/16 03:31:38;;;;;;;;;22.25;19.75;;;;;11.82;73.24;101349.28;4998736;28;45510;-63
2022/03/16 03:34:03;;;;;;;;;20.75;17.50;;;;;11.88;73.30;101352.59;5011298;28;45329;-64
2022/03/16 03:36:30;;;;;;;;;21.75;19.00;;;;;11.85;73.58;101344.72;5005107;28;45488;-63
2022/03/16 03:38:55;;;;;;;;;16.00;15.50;;;;;11.80;73.10;101337.81;5005457;28;45428;-63
2022/03/16 03:41:21;;;;;;;;;29.25;20.50;;;;;11.88;73.11;101352.59;5005615;28;45242;-63
2022/03/16 03:43:46;;;;;;;;;24.00;19.25;;;;;11.84;73.18;101348.31;5021073;28;45462;-63
2022/03/16 03:46:12;;;;;;;;;25.75;19.25;;;;;11.75;72.98;101336.31;5017187;28;45511;-64
2022/03/16 03:48:37;;;;;;;;;19.50;17.00;;;;;11.70;73.39;101315.19;5002136;28;45252;-64
2022/03/16 03:51:02;;;;;;;;;27.75;21.00;;;;;11.90;73.43;101354.25;5003368;28;44908;-63
2022/03/16 03:53:28;;;;;;;;;23.00;22.00;;;;;11.80;73.14;101347.63;5002215;28;46042;-63
2022/03/16 03:55:53;;;;;;;;;23.50;19.75;;;;;11.90;73.66;101364.03;4989015;28;45772;-63
2022/03/16 03:58:19;;;;;;;;;23.50;17.50;;;;;11.87;73.45;101358.88;4987938;28;45499;-64
2022/03/16 04:00:44;;;;;;;;;24.25;20.50;;;;;11.83;73.40;101347.47;5006275;28;45373;-63
2022/03/16 04:03:10;;;;;;;;;23.00;18.25;;;;;11.86;73.52;101359.81;5004678;28;45527;-64
2022/03/16 04:05:35;;;;;;;;;25.50;22.50;;;;;11.82;73.36;101353.75;5001727;28;45297;-63
2022/03/16 04:08:01;;;;;;;;;26.00;24.50;;;;;11.78;73.85;101350.34;5005933;28;45179;-63
2022/03/16 04:10:26;;;;;;;;;20.00;16.25;;;;;11.73;73.52;101351.50;5007800;28;45778;-63
2022/03/16 04:12:52;;;;;;;;;20.00;19.25;;;;;11.69;74.11;101341.91;5007003;28;45373;-63
2022/03/16 04:15:20;;;;;;;;;22.50;20.25;;;;;11.70;73.89;101341.84;4989670;28;45447;-62
2022/03/16 04:17:46;;;;;;;;;21.00;18.50;;;;;11.72;73.85;101344.47;5007054;28;45275;-63
2022/03/16 04:20:11;;;;;;;;;25.00;23.50;;;;;11.70;73.94;101336.50;5004985;28;45359;-64
2022/03/16 04:22:37;;;;;;;;;20.00;19.25;;;;;11.67;74.01;101331.34;5002964;28;45654;-64
2022/03/16 04:25:03;;;;;;;;;21.00;18.25;;;;;11.68;73.76;101333.06;5004006;28;45602;-64
2022/03/16 04:27:29;;;;;;;;;18.50;17.25;;;;;11.59;73.82;101314.00;4997164;28;44774;-63
2022/03/16 04:29:54;;;;;;;;;20.50;20.25;;;;;11.64;74.39;101328.84;5021746;28;45318;-62
2022/03/16 04:32:19;;;;;;;;;23.50;21.25;;;;;11.53;74.35;101305.38;5034646;28;45242;-62
2022/03/16 04:34:45;;;;;;;;;24.00;20.00;;;;;11.56;74.78;101323.00;5020392;28;45544;-65
2022/03/16 04:37:10;;;;;;;;;17.25;15.25;;;;;11.53;74.61;101320.50;5017184;28;45185;-63
2022/03/16 04:39:36;;;;;;;;;24.25;22.25;;;;;11.58;74.55;101318.47;4997715;28;44887;-63
2022/03/16 04:42:02;;;;;;;;;28.75;23.75;;;;;11.50;74.41;101297.53;4990222;28;45509;-64
2022/03/16 04:44:27;;;;;;;;;29.50;22.25;;;;;11.52;74.72;101308.13;4999409;28;45367;-63
2022/03/16 04:46:52;;;;;;;;;19.25;18.50;;;;;11.52;74.36;101308.13;4997353;28;46395;-64
2022/03/16 04:49:18;;;;;;;;;26.75;22.25;;;;;11.52;74.16;101294.78;4997968;28;45634;-64
2022/03/16 04:51:43;;;;;;;;;22.00;19.75;;;;;11.53;74.38;101312.50;5005781;28;46073;-63
2022/03/16 04:54:08;;;;;;;;;20.50;20.50;;;;;11.55;74.27;101305.28;5004864;28;45403;-62
2022/03/16 04:56:35;;;;;;;;;25.00;21.25;;;;;11.55;74.37;101310.63;5022317;28;45317;-64
2022/03/16 04:59:01;;;;;;;;;23.25;21.25;;;;;11.48;74.34;101304.75;5025304;28;44906;-63
2022/03/16 05:01:27;;;;;;;;;18.75;18.50;;;;;11.48;74.59;101314.53;5013355;28;46324;-62
2022/03/16 05:03:52;;;;;;;;;23.00;19.50;;;;;11.39;74.24;101304.31;5005227;28;45497;-63
2022/03/16 05:06:18;;;;;;;;;26.50;24.00;;;;;11.49;74.50;101319.78;5014712;28;45483;-64
2022/03/16 05:08:45;;;;;;;;;26.00;22.25;;;;;11.47;74.65;101323.47;5003737;28;45510;-65
2022/03/16 05:11:11;;;;;;;;;22.25;18.75;;;;;11.37;74.37;101299.06;4999013;28;46441;-64
2022/03/16 05:13:37;;;;;;;;;21.50;18.00;;;;;11.44;74.81;101312.94;5005269;28;45996;-64
2022/03/16 05:16:03;;;;;;;;;28.50;20.25;;;;;11.36;74.89;101307.13;4996189;28;46005;-63
2022/03/16 05:18:29;;;;;;;;;18.75;16.00;;;;;11.36;74.64;101300.00;5015367;28;45637;-66
2022/03/16 05:20:54;;;;;;;;;24.00;22.00;;;;;11.30;74.51;101289.63;5010166;28;45451;-63
2022/03/16 05:23:20;;;;;;;;;28.00;26.00;;;;;11.37;75.38;101303.53;5004386;28;45603;-62
2022/03/16 05:25:45;;;;;;;;;35.50;25.75;;;;;11.32;75.16;101301.06;5006356;28;45260;-63
2022/03/16 05:28:11;;;;;;;;;26.50;22.00;;;;;11.28;75.35;101290.66;5007194;28;45282;-63
2022/03/16 05:30:36;;;;;;;;;26.50;18.75;;;;;11.34;75.61;101309.88;5004839;28;45342;-64
2022/03/16 05:33:02;;;;;;;;;27.75;24.00;;;;;10.93;75.06;101253.25;5005736;28;45385;-62
2022/03/16 05:35:29;;;;;;;;;27.00;22.25;;;;;11.31;75.15;101319.78;5001153;28;45258;-62
2022/03/16 05:37:54;;;;;;;;;22.75;22.25;;;;;11.20;75.75;101307.88;4999834;28;45374;-64
2022/03/16 05:40:20;;;;;;;;;23.50;22.75;;;;;11.27;75.75;101328.88;5008104;28;45476;-63
2022/03/16 05:42:45;;;;;;;;;27.50;22.50;;;;;11.23;75.20;101317.50;5011632;28;45337;-63
2022/03/16 05:45:12;;;;;;;;;27.75;27.00;;;;;11.26;75.21;101329.81;5006400;28;45452;-63
2022/03/16 05:47:37;;;;;;;;;23.75;23.50;;;;;11.29;75.60;101334.97;5002380;28;45365;-62
2022/03/16 05:50:04;;;;;;;;;29.00;23.75;;;;;11.31;75.61;101347.28;4998769;28;45531;-63
2022/03/16 05:52:31;;;;;;;;;24.00;24.00;;;;;11.15;75.17;101314.31;4996447;28;45375;-63
2022/03/16 05:54:57;;;;;;;;;24.00;23.00;;;;;11.19;75.68;101324.75;5000068;28;45242;-63
2022/03/16 05:57:23;;;;;;;;;28.50;28.50;;;;;11.25;75.69;101333.41;4988805;28;45317;-63
2022/03/16 05:59:48;;;;;;;;;26.25;24.25;;;;;11.18;75.30;101322.16;5003169;28;45545;-64
2022/03/16 06:02:14;;;;;;;;;27.75;25.00;;;;;11.23;75.59;101337.00;5004784;28;45385;-63
2022/03/16 06:04:41;;;;;;;;;28.25;23.75;;;;;11.09;76.02;101307.50;4999445;28;45337;-63
2022/03/16 06:07:07;;;;;;;;;27.50;23.00;;;;;11.21;75.80;101320.25;5001029;28;45508;-64
2022/03/16 06:09:33;;;;;;;;;24.50;22.75;;;;;11.28;75.59;101328.78;4988575;28;47207;-62
2022/03/16 06:12:00;;;;;;;;;28.25;23.75;;;;;11.28;75.15;101335.91;5003573;28;45364;-63
2022/03/16 06:14:25;;;;;;;;;30.75;28.00;;;;;11.29;75.43;101343.81;5004673;28;45344;-63
2022/03/16 06:16:52;;;;;;;;;25.75;25.00;;;;;11.29;75.52;101341.16;5006031;28;45313;-63
2022/03/16 06:19:19;;;;;;;;;19.50;18.50;;;;;11.28;75.16;101339.44;5011700;28;45302;-63
2022/03/16 06:21:44;;;;;;;;;27.50;23.50;;;;;11.31;75.90;101343.75;5011222;28;47228;-63
2022/03/16 06:24:11;;;;;;;;;36.00;23.75;;;;;11.25;75.36;101320.97;4986074;28;45341;-63
2022/03/16 06:26:37;;;;;;;;;24.25;23.00;;;;;11.33;75.94;101325.91;5003987;28;45401;-64
2022/03/16 06:29:03;;;;;;;;;23.50;20.25;;;;;11.30;75.82;101332.25;5003268;28;46039;-66
2022/03/16 06:31:28;;;;;;;;;26.50;21.25;;;;;11.14;75.38;101318.78;4998739;28;45461;-66
2022/03/16 06:33:53;;;;;;;;;32.75;23.75;;;;;11.30;75.75;101342.03;4986094;28;45644;-68
2022/03/16 06:36:19;;;;;;;;;27.50;27.25;;;;;11.23;75.42;101339.66;4989475;28;45675;-69
2022/03/16 06:38:44;;;;;;;;;28.50;25.75;;;;;11.16;75.88;101327.56;5004138;28;45344;-69
2022/03/16 06:41:10;;;;;;;;;29.25;28.25;;;;;11.21;75.26;101338.88;5003395;28;45297;-68
2022/03/16 06:43:36;;;;;;;;;27.75;27.75;;;;;11.23;75.22;101331.69;5002792;28;45467;-65
2022/03/16 06:46:01;;;;;;;;;25.25;25.25;;;;;11.09;75.74;101307.50;4983895;28;45330;-65
2022/03/16 06:48:28;;;;;;;;;34.75;30.00;;;;;11.21;75.70;101328.22;4978341;28;45343;-64
2022/03/16 06:50:54;;;;;;;;;38.00;31.50;;;;;11.44;75.03;101352.88;5005230;28;45337;-65
2022/03/16 06:53:20;;;;;;;;;28.75;25.75;;;;;11.39;75.02;101362.91;5002147;28;45315;-67
2022/03/16 06:55:46;;;;;;;;;31.50;23.50;;;;;11.46;74.71;101369.69;5003804;28;45533;-65
2022/03/16 06:58:11;;;;;;;;;28.75;24.75;;;;;11.45;74.78;101365.28;5005993;28;46576;-63
2022/03/16 07:00:37;;;;;;;;;29.25;23.50;;;;;11.53;74.39;101379.09;5000330;28;45294;-65
2022/03/16 07:03:05;;;;;;;;;26.00;26.00;;;;;11.52;74.66;101366.72;4981484;28;45778;-63
2022/03/16 07:05:36;;;;;;;;;32.00;23.25;;;;;11.58;74.37;101384.19;5000221;28;45237;-69
2022/03/16 07:08:04;;;;;;;;;28.25;26.00;;;;;11.53;74.31;101376.44;5007032;28;45127;-62
2022/03/16 07:10:31;;;;;;;;;32.00;29.50;;;;;11.53;74.21;101368.44;5005576;28;45215;-61
2022/03/16 07:12:57;;;;;;;;;36.00;28.50;;;;;11.53;74.37;101365.78;5002686;28;45735;-65
2022/03/16 07:15:23;;;;;;;;;27.75;27.50;;;;;11.53;74.02;101365.78;5001900;28;45723;-63
2022/03/16 07:17:48;;;;;;;;;27.00;25.25;;;;;11.48;74.52;101351.81;4969187;28;48206;-64
2022/03/16 07:20:14;;;;;;;;;29.00;27.75;;;;;11.56;74.55;101364.75;5013614;28;45222;-64
2022/03/16 07:22:40;;;;;;;;;35.50;28.50;;;;;11.51;74.61;101363.19;5004757;28;45397;-65
2022/03/16 07:25:09;;;;;;;;;28.75;28.75;;;;;11.56;73.55;101362.97;4985749;28;45645;-63
2022/03/16 07:27:38;;;;;;;;;36.25;28.00;;;;;11.63;74.09;101360.88;5002179;28;45275;-63
2022/03/16 07:30:08;;;;;;;;;28.50;24.00;;;;;11.62;74.32;101357.34;5003392;28;45417;-65
2022/03/16 07:32:41;;;;;;;;;26.50;24.75;;;;;11.67;74.34;101352.66;5007688;28;45409;-64
2022/03/16 07:35:09;;;;;;;;;30.50;28.50;;;;;11.77;73.79;101364.59;5008167;28;46017;-63
2022/03/16 07:37:35;;;;;;;;;33.25;31.75;;;;;11.79;73.53;101361.88;5005210;28;45420;-62
2022/03/16 07:40:01;;;;;;;;;35.50;33.50;;;;;11.89;73.28;101370.31;5005047;28;45352;-64
2022/03/16 07:42:26;;;;;;;;;31.25;30.50;;;;;11.87;73.03;101369.53;5003464;28;45364;-64
2022/03/16 07:44:52;;;;;;;;;35.50;31.75;;;;;11.82;73.51;101375.06;5002767;28;45541;-61
2022/03/16 07:47:17;;;;;;;;;34.25;29.75;;;;;11.84;73.19;101364.31;5000774;28;45582;-64
2022/03/16 07:49:43;;;;;;;;;30.25;26.75;;;;;11.84;73.25;101370.50;5002099;28;45250;-64
2022/03/16 07:52:08;;;;;;;;;34.25;29.50;;;;;11.79;73.22;101365.41;4985334;28;45391;-64
2022/03/16 07:54:34;;;;;;;;;29.25;27.25;;;;;11.79;73.30;101361.88;5000384;28;45687;-63
2022/03/16 07:56:59;;;;;;;;;26.50;24.00;;;;;11.85;73.19;101371.38;5000197;28;45544;-63
2022/03/16 07:59:25;;;;;;;;;30.25;27.75;;;;;11.70;73.07;101349.84;5000303;28;45476;-63
2022/03/16 08:01:50;;;;;;;;;30.00;26.00;;;;;11.86;73.29;101378.47;5001615;28;45443;-62
2022/03/16 08:04:15;;;;;;;;;35.75;32.75;;;;;11.76;73.21;101359.34;5005542;28;45763;-64
2022/03/16 08:06:41;;;;;;;;;36.50;31.25;;;;;11.92;73.04;101372.81;5003641;28;45364;-63
2022/03/16 08:09:07;;;;;;;;;33.50;27.75;;;;;11.90;72.94;101358.72;5004166;28;45376;-63
2022/03/16 08:11:32;;;;;;;;;34.25;29.25;;;;;11.57;72.74;101313.22;5007829;28;45412;-63
2022/03/16 08:13:58;;;;;;;;;35.00;31.25;;;;;11.92;72.63;101362.16;5009455;28;44862;-63
2022/03/16 08:16:23;;;;;;;;;31.25;29.00;;;;;11.92;72.63;101356.81;4982830;28;47381;-64
2022/03/16 08:18:49;;;;;;;;;34.50;31.25;;;;;11.91;72.80;101357.75;4984760;28;45236;-64
2022/03/16 08:21:14;;;;;;;;;27.75;24.25;;;;;11.90;72.97;101354.25;4968922;28;45219;-64
2022/03/16 08:23:40;;;;;;;;;26.50;26.50;;;;;11.94;72.67;101360.28;4964781;28;45358;-64
2022/03/16 08:26:05;;;;;;;;;28.00;28.00;;;;;11.94;72.79;101350.47;4979471;28;46123;-66
2022/03/16 08:28:30;;;;;;;;;32.00;29.25;;;;;11.95;73.15;101357.53;4979434;28;45391;-64
2022/03/16 08:30:56;;;;;;;;;33.00;30.75;;;;;11.90;72.56;101346.25;4962841;28;45371;-64
2022/03/16 08:33:23;;;;;;;;;31.00;25.25;;;;;11.90;72.52;101342.72;4981668;28;45354;-62
2022/03/16 08:35:49;;;;;;;;;32.25;29.75;;;;;11.99;72.12;101348.47;4984126;28;45327;-62
2022/03/16 08:38:15;;;;;;;;;29.75;28.25;;;;;12.05;72.44;101352.59;4982838;28;45481;-63
2022/03/16 08:40:41;;;;;;;;;29.25;28.25;;;;;12.05;72.09;101355.28;4983782;28;45255;-62
2022/03/16 08:43:07;;;;;;;;;37.75;30.50;;;;;12.08;72.04;101360.44;4982147;28;45326;-64
2022/03/16 08:45:32;;;;;;;;;42.00;31.50;;;;;12.08;72.07;101363.13;4980087;28;45350;-63
2022/03/16 08:47:58;;;;;;;;;34.75;26.00;;;;;12.00;72.07;101354.66;4980278;28;45644;-65
2022/03/16 08:50:24;;;;;;;;;33.25;32.00;;;;;12.08;71.58;101366.63;4978635;28;45444;-64
2022/03/16 08:52:49;;;;;;;;;30.25;27.75;;;;;12.05;72.06;101357.94;4961968;28;45600;-63
2022/03/16 08:55:15;;;;;;;;;39.25;35.25;;;;;12.13;71.74;101377.09;4979512;28;45957;-67
2022/03/16 08:57:44;;;;;;;;;30.50;25.00;;;;;12.06;71.88;101370.31;4978280;28;45389;-62
2022/03/16 09:00:18;;;;;;;;;27.25;26.25;;;;;12.19;71.72;101384.78;4979447;28;45295;-63
2022/03/16 09:02:45;;;;;;;;;38.75;29.25;;;;;12.25;71.22;101389.81;4961917;28;45458;-64
2022/03/16 09:05:12;;;;;;;;;36.75;30.75;;;;;12.28;71.48;101397.66;4980344;28;46461;-64
2022/03/16 09:07:41;;;;;;;;;33.75;32.00;;;;;12.34;71.12;101397.34;4963716;28;45864;-64
2022/03/16 09:10:08;;;;;;;;;32.75;25.75;;;;;12.40;71.26;101397.03;4983669;28;45240;-63
2022/03/16 09:12:35;;;;;;;;;30.25;28.00;;;;;12.39;70.90;101389.97;4963872;28;45611;-64
2022/03/16 09:15:00;;;;;;;;;41.00;36.75;;;;;12.46;70.76;101392.31;4990358;28;45942;-62
2022/03/16 09:17:25;;;;;;;;;33.75;30.50;;;;;12.52;71.22;101389.34;5002492;28;45420;-62
2022/03/16 09:19:52;;;;;;;;;42.00;35.50;;;;;12.56;70.76;101382.91;4986554;28;45306;-62
2022/03/16 09:22:18;;;;;;;;;36.00;32.00;;;;;12.65;70.82;101387.78;5000702;28;45350;-63
2022/03/16 09:24:44;;;;;;;;;33.50;29.00;;;;;12.65;70.26;101374.44;4999335;28;46566;-65
2022/03/16 09:27:09;;;;;;;;;14.00;13.75;;;;;12.67;69.93;101373.41;4999125;28;45715;-67
2022/03/16 09:29:35;;;;;;;;;34.50;31.50;;;;;12.67;69.50;101384.09;5000131;28;45354;-63
2022/03/16 09:32:01;;;;;;;;;34.00;32.25;;;;;12.62;70.37;101370.09;4998535;28;45604;-64
2022/03/16 09:34:27;;;;;;;;;31.50;26.25;;;;;12.69;70.08;101386.66;4998781;28;46150;-67
2022/03/16 09:36:53;;;;;;;;;38.50;30.00;;;;;12.74;69.97;101389.94;4999197;28;45317;-64
2022/03/16 09:39:18;;;;;;;;;34.75;32.50;;;;;12.85;69.60;101392.91;5001127;28;45325;-63
2022/03/16 09:41:44;;;;;;;;;38.50;27.00;;;;;12.91;69.16;101373.91;5001885;28;45385;-64
2022/03/16 09:44:10;;;;;;;;;41.25;35.00;;;;;13.02;68.97;101378.69;5002973;28;45444;-64
2022/03/16 09:46:36;;;;;;;;;36.25;33.25;;;;;13.05;68.71;101383.00;5000926;28;45451;-64
2022/03/16 09:49:04;;;;;;;;;38.25;29.50;;;;;13.02;68.52;101370.69;4984107;28;45491;-63
2022/03/16 09:51:35;;;;;;;;;37.33;31.67;;;;;12.96;68.37;101355.84;5004324;28;45526;-63
2022/03/16 09:54:01;;;;;;;;;23.00;23.00;;;;;12.96;68.54;101352.31;4996829;28;47067;-64
2022/03/16 09:56:30;;;;;;;;;31.50;27.00;;;;;13.03;68.65;101364.41;5002636;28;45473;-64
2022/03/16 09:58:56;;;;;;;;;41.75;34.50;;;;;13.10;68.38;101371.09;5000083;28;45615;-63
2022/03/16 10:01:22;;;;;;;;;30.75;26.00;;;;;13.07;68.22;101354.41;5004863;28;45783;-63
2022/03/16 10:03:48;;;;;;;;;33.00;29.25;;;;;13.12;68.30;101363.88;5008428;28;45242;-65
2022/03/16 10:06:16;;;;;;;;;31.50;26.75;;;;;13.17;68.55;101356.50;5005098;28;45560;-64
2022/03/16 10:08:42;;;;;;;;;39.75;33.25;;;;;13.26;67.74;101357.81;4983534;28;45428;-65
2022/03/16 10:14:07;;;;;;;;;36.75;32.75;;;;;13.31;67.88;101360.25;5002871;28;45405;-62
2022/03/16 10:19:22;;;;;;;;;40.00;33.50;;;;;13.43;67.40;101357.75;4984280;28;45387;-62
2022/03/16 10:22:02;;;;;;;;;34.25;32.25;;;;;13.49;66.90;101352.06;4951327;28;45449;-66
2022/03/16 10:24:30;;;;;;;;;35.50;34.75;;;;;13.54;66.70;101352.69;4962299;28;47625;-67
2022/03/16 10:26:59;;;;;;;;;35.75;32.75;;;;;13.53;66.58;101342.91;4981706;28;45412;-63
2022/03/16 10:29:26;;;;;;;;;41.00;35.75;;;;;13.67;65.96;101344.84;4981587;28;45490;-64
2022/03/16 10:32:05;;;;;;;;;38.75;35.00;;;;;13.66;66.86;101348.41;4981833;28;45693;-63
2022/03/16 10:34:32;;;;;;;;;37.25;34.50;;;;;13.67;66.68;101347.50;4984431;28;45411;-67
2022/03/16 10:36:59;;;;;;;;;37.00;32.50;;;;;13.79;66.33;101356.59;4981721;28;45364;-64
2022/03/16 10:39:35;;;;;;;;;34.00;32.00;;;;;13.87;66.40;101357.91;4985127;28;45256;-64
2022/03/16 10:47:56;;;;;;;;;39.75;34.00;;;;;13.92;65.27;101330.88;4981919;28;45417;-65
2022/03/16 10:50:22;;;;;;;;;32.67;28.33;;;;;13.97;64.76;101339.53;4984172;28;45869;-64
2022/03/16 10:52:50;;;;;;;;;44.00;35.00;;;;;14.02;64.91;101337.44;4981558;28;45605;-63
2022/03/16 10:55:19;;;;;;;;;36.25;32.75;;;;;14.10;65.15;101337.84;4980755;28;45277;-64
2022/03/16 10:57:48;;;;;;;;;34.25;32.25;;;;;14.13;65.14;101343.00;4980534;28;45514;-63
2022/03/16 11:00:17;;;;;;;;;39.25;36.00;;;;;14.14;64.42;101317.13;4982524;28;45413;-63
2022/03/16 11:02:45;;;;;;;;;36.25;34.75;;;;;14.30;64.86;101322.41;4948306;28;45269;-65
2022/03/16 11:05:11;;;;;;;;;36.00;33.00;;;;;14.38;63.92;101312.13;4980977;28;46216;-65
2022/03/16 11:07:38;;;;;;;;;32.50;32.50;;;;;14.44;64.23;101309.09;4979668;28;45318;-65
2022/03/16 11:10:04;;;;;;;;;35.33;30.67;;;;;14.46;63.89;101301.84;4978892;28;45307;-64
2022/03/16 11:15:18;;;;;;;;;32.67;31.33;;;;;14.51;62.77;101289.03;4992693;28;45314;-63
2022/03/16 11:17:45;;;;;;;;;37.25;34.00;;;;;14.49;63.28;101272.22;5003056;28;45570;-65
2022/03/16 11:20:12;;;;;;;;;45.50;33.75;;;;;14.71;62.90;101288.69;4987372;28;45487;-64